Fantasia — ICJY — position and weather

sailwx.info

Track history (hours):
 
Tides and Currents Weather Stations Pressure Air Temp Water Temp Dewpoint Dewpoint Depression Visibility Wind Speed Wind Dir Waves Ship Positions

Fantasia

Last reported at 2016-Jul-28 07:33 UTC. Time now 2016-Jul-31 07:21 UTC.
Position N 40°26' W 069°17'.

Length 183 m; draft 8 m.

Type: Tanker. MMSI: 247279600.

Date/timePositionNaut miles runAvg speedWind from/ knotsBaromVisibWave heightAir tempDewpointWater temp
2016-Jul-28 07:33N 40°26' W 069°17'1412.9
2016-Jul-28 06:27N 40°26' W 069°36'1512.5
2016-Jul-28 05:16N 40°25' W 069°55'1413.2
2016-Jul-28 04:14N 40°25' W 070°13'912.4
2016-Jul-28 03:31N 40°25' W 070°25'1413.1
2016-Jul-28 02:26N 40°25' W 070°44'2713.4
2016-Jul-28 00:25N 40°24' W 071°19'1413.8
2016-Jul-27 23:27N 40°23' W 071°37'4214.0
2016-Jul-27 20:25N 40°22' W 072°32'1214.2
2016-Jul-27 19:33N 40°22' W 072°48'1413.8
2016-Jul-27 18:33N 40°21' W 073°06'1413.4
2016-Jul-27 17:29N 40°24' W 073°25'1213.2
2016-Jul-27 16:33N 40°26' W 073°41'1212.1
2016-Jul-27 15:33N 40°27' W 073°57'1211.6
2016-Jul-27 14:32N 40°30' W 074°12'4 3.5
2016-Jul-27 13:31N 40°33' W 074°14'2 0.1
2016-Jul-26 07:33N 40°35' W 074°13'3 3.0
2016-Jul-26 06:31N 40°38' W 074°12'6 5.9
2016-Jul-26 05:33N 40°39' W 074°05'1 0.6
2016-Jul-26 04:33N 40°39' W 074°04'0 0.1
2016-Jul-26 03:31N 40°39' W 074°04'0 0.1
2016-Jul-26 02:28N 40°39' W 074°04'0 0.2
2016-Jul-26 01:31N 40°38' W 074°04'0 0.0
2016-Jul-26 00:31N 40°38' W 074°04'0 0.0
2016-Jul-25 23:31N 40°38' W 074°04'0 0.0
2016-Jul-25 22:31N 40°38' W 074°04'0 0.0
2016-Jul-25 21:28N 40°38' W 074°04'0 0.1
2016-Jul-25 20:31N 40°38' W 074°04'0 0.1
2016-Jul-25 19:31N 40°38' W 074°04'0 0.2
2016-Jul-25 18:31N 40°39' W 074°04'0 0.0
2016-Jul-25 17:31N 40°39' W 074°04'0 0.0
2016-Jul-25 16:31N 40°39' W 074°04'0 0.0
2016-Jul-25 15:28N 40°39' W 074°04'0 0.1
2016-Jul-25 14:31N 40°39' W 074°04'0 0.2
2016-Jul-25 13:31N 40°38' W 074°04'0 0.1
2016-Jul-25 12:31N 40°38' W 074°04'0 0.0
2016-Jul-25 11:31N 40°38' W 074°04'0 0.0
2016-Jul-25 10:28N 40°38' W 074°04'0 0.1
2016-Jul-25 09:31N 40°38' W 074°04'0 0.0
2016-Jul-25 08:31N 40°38' W 074°04'0 0.0
2016-Jul-25 07:31N 40°38' W 074°04'0 0.1
2016-Jul-25 06:31N 40°38' W 074°04'0 0.2
2016-Jul-25 05:28N 40°39' W 074°04'0 0.0
2016-Jul-25 04:31N 40°39' W 074°04'0 0.0
2016-Jul-25 03:31N 40°39' W 074°04'0 0.0
2016-Jul-25 02:31N 40°39' W 074°04'0 0.1
2016-Jul-25 01:31N 40°39' W 074°04'0 0.1
2016-Jul-25 00:31N 40°39' W 074°04'0 0.2
2016-Jul-24 23:31N 40°38' W 074°04'0 0.0
2016-Jul-24 22:31N 40°38' W 074°04'0 0.1
2016-Jul-24 21:33N 40°38' W 074°04'9 8.4
2016-Jul-24 20:32N 40°31' W 073°59'1110.7
2016-Jul-24 19:33N 40°27' W 073°46'1612.0
2016-Jul-24 18:13N 40°28' W 073°25'  
Track history (hours):
 
Tides and Currents Weather Stations Pressure Air Temp Water Temp Dewpoint Dewpoint Depression Visibility Wind Speed Wind Dir Waves Ship Positions

Fantasia

Last reported at 2016-Jul-28 07:33 UTC. Time now 2016-Jul-31 07:21 UTC.
Position N 40°26' W 069°17'.

Length 183 m; draft 8 m.

Type: Tanker. MMSI: 247279600.

Date/timePositionNaut miles runAvg speedWind from/ knotsBaromVisibWave heightAir tempDewpointWater temp
2016-Jul-28 07:33N 40°26' W 069°17'1412.9
2016-Jul-28 06:27N 40°26' W 069°36'1512.5
2016-Jul-28 05:16N 40°25' W 069°55'1413.2
2016-Jul-28 04:14N 40°25' W 070°13'912.4
2016-Jul-28 03:31N 40°25' W 070°25'1413.1
2016-Jul-28 02:26N 40°25' W 070°44'2713.4
2016-Jul-28 00:25N 40°24' W 071°19'1413.8
2016-Jul-27 23:27N 40°23' W 071°37'4214.0
2016-Jul-27 20:25N 40°22' W 072°32'1214.2
2016-Jul-27 19:33N 40°22' W 072°48'1413.8
2016-Jul-27 18:33N 40°21' W 073°06'1413.4
2016-Jul-27 17:29N 40°24' W 073°25'1213.2
2016-Jul-27 16:33N 40°26' W 073°41'1212.1
2016-Jul-27 15:33N 40°27' W 073°57'1211.6
2016-Jul-27 14:32N 40°30' W 074°12'4 3.5
2016-Jul-27 13:31N 40°33' W 074°14'2 0.1
2016-Jul-26 07:33N 40°35' W 074°13'3 3.0
2016-Jul-26 06:31N 40°38' W 074°12'6 5.9
2016-Jul-26 05:33N 40°39' W 074°05'1 0.6
2016-Jul-26 04:33N 40°39' W 074°04'0 0.1
2016-Jul-26 03:31N 40°39' W 074°04'0 0.1
2016-Jul-26 02:28N 40°39' W 074°04'0 0.2
2016-Jul-26 01:31N 40°38' W 074°04'0 0.0
2016-Jul-26 00:31N 40°38' W 074°04'0 0.0
2016-Jul-25 23:31N 40°38' W 074°04'0 0.0
2016-Jul-25 22:31N 40°38' W 074°04'0 0.0
2016-Jul-25 21:28N 40°38' W 074°04'0 0.1
2016-Jul-25 20:31N 40°38' W 074°04'0 0.1
2016-Jul-25 19:31N 40°38' W 074°04'0 0.2
2016-Jul-25 18:31N 40°39' W 074°04'0 0.0
2016-Jul-25 17:31N 40°39' W 074°04'0 0.0
2016-Jul-25 16:31N 40°39' W 074°04'0 0.0
2016-Jul-25 15:28N 40°39' W 074°04'0 0.1
2016-Jul-25 14:31N 40°39' W 074°04'0 0.2
2016-Jul-25 13:31N 40°38' W 074°04'0 0.1
2016-Jul-25 12:31N 40°38' W 074°04'0 0.0
2016-Jul-25 11:31N 40°38' W 074°04'0 0.0
2016-Jul-25 10:28N 40°38' W 074°04'0 0.1
2016-Jul-25 09:31N 40°38' W 074°04'0 0.0
2016-Jul-25 08:31N 40°38' W 074°04'0 0.0
2016-Jul-25 07:31N 40°38' W 074°04'0 0.1
2016-Jul-25 06:31N 40°38' W 074°04'0 0.2
2016-Jul-25 05:28N 40°39' W 074°04'0 0.0
2016-Jul-25 04:31N 40°39' W 074°04'0 0.0
2016-Jul-25 03:31N 40°39' W 074°04'0 0.0
2016-Jul-25 02:31N 40°39' W 074°04'0 0.1
2016-Jul-25 01:31N 40°39' W 074°04'0 0.1
2016-Jul-25 00:31N 40°39' W 074°04'0 0.2
2016-Jul-24 23:31N 40°38' W 074°04'0 0.0
2016-Jul-24 22:31N 40°38' W 074°04'0 0.1
2016-Jul-24 21:33N 40°38' W 074°04'9 8.4
2016-Jul-24 20:32N 40°31' W 073°59'1110.7
2016-Jul-24 19:33N 40°27' W 073°46'1612.0
2016-Jul-24 18:13N 40°28' W 073°25'  

Dump ship's entire track history